createdAt,value
2023-10-28T00:00:59.486Z,24.00
2023-10-28T00:03:37.156Z,26.92
2023-10-28T00:06:04.994Z,13.48
2023-10-28T00:08:32.358Z,8.67
2023-10-28T00:11:00.878Z,7.63
2023-10-28T00:13:28.623Z,5.13
2023-10-28T00:15:55.682Z,4.90
2023-10-28T00:18:23.021Z,6.35
2023-10-28T00:20:50.432Z,8.13
2023-10-28T00:23:18.366Z,10.57
2023-10-28T00:25:46.484Z,15.32
2023-10-28T00:28:13.841Z,10.98
2023-10-28T00:30:41.728Z,10.48
2023-10-28T00:33:09.713Z,8.67
2023-10-28T00:35:37.784Z,8.10
2023-10-28T00:38:05.482Z,9.65
2023-10-28T00:40:33.282Z,12.30
2023-10-28T00:43:00.952Z,8.30
2023-10-28T00:45:33.052Z,8.10
2023-10-28T00:48:00.392Z,9.43
2023-10-28T00:50:31.269Z,10.18
2023-10-28T00:53:00.372Z,7.80
2023-10-28T00:55:30.822Z,28.55
2023-10-28T00:57:59.431Z,18.60
2023-10-28T01:00:26.984Z,13.95
2023-10-28T01:02:54.703Z,19.58
2023-10-28T01:05:23.690Z,14.73
2023-10-28T01:07:51.611Z,13.77
2023-10-28T01:10:32.023Z,12.00
2023-10-28T01:13:02.246Z,11.07
2023-10-28T01:15:29.345Z,7.97
2023-10-28T01:17:58.944Z,9.57
2023-10-28T01:20:26.283Z,7.82
2023-10-28T01:22:53.863Z,7.17
2023-10-28T01:25:22.248Z,9.77
2023-10-28T01:27:49.639Z,5.68
2023-10-28T01:30:17.937Z,4.53
2023-10-28T01:32:46.539Z,7.07
2023-10-28T01:35:14.884Z,13.70
2023-10-28T01:37:43.178Z,10.90
2023-10-28T01:40:14.530Z,13.95
2023-10-28T01:42:45.814Z,16.63
2023-10-28T01:45:14.997Z,6.80
2023-10-28T01:47:45.196Z,6.80
2023-10-28T01:50:13.957Z,4.53
2023-10-28T01:52:44.322Z,5.22
2023-10-28T01:55:13.284Z,4.47
2023-10-28T01:57:40.937Z,4.30
2023-10-28T02:00:09.224Z,3.60
2023-10-28T02:02:39.900Z,2.97
2023-10-28T02:05:07.423Z,3.05
2023-10-28T02:07:35.249Z,3.35
2023-10-28T02:10:02.266Z,4.00
2023-10-28T02:12:30.364Z,4.00
2023-10-28T02:14:57.280Z,3.17
2023-10-28T02:17:25.163Z,7.03
2023-10-28T02:19:52.127Z,4.78
2023-10-28T02:22:19.768Z,4.57
2023-10-28T02:24:46.711Z,4.73
2023-10-28T02:27:14.015Z,4.90
2023-10-28T02:29:42.004Z,3.40
2023-10-28T02:32:10.677Z,3.17
2023-10-28T02:34:38.065Z,5.35
2023-10-28T02:37:05.584Z,3.47
2023-10-28T02:39:32.528Z,3.55
2023-10-28T02:42:00.054Z,3.15
2023-10-28T02:44:28.037Z,3.88
2023-10-28T02:46:55.606Z,3.05
2023-10-28T02:49:22.830Z,2.60
2023-10-28T02:51:50.436Z,4.13
2023-10-28T02:54:17.389Z,2.90
2023-10-28T02:56:46.419Z,2.88
2023-10-28T02:59:13.566Z,2.75
2023-10-28T03:01:41.216Z,5.03
2023-10-28T03:04:08.744Z,3.47
2023-10-28T03:06:36.053Z,3.80
2023-10-28T03:09:03.221Z,4.78
2023-10-28T03:11:30.826Z,5.75
2023-10-28T03:13:57.906Z,3.50
2023-10-28T03:16:26.533Z,3.13
2023-10-28T03:18:53.528Z,3.10
2023-10-28T03:21:20.862Z,5.13
2023-10-28T03:23:47.929Z,3.55
2023-10-28T03:26:15.563Z,3.80
2023-10-28T03:28:42.601Z,4.70
2023-10-28T03:31:14.048Z,3.47
2023-10-28T03:33:41.945Z,3.67
2023-10-28T03:36:12.637Z,3.47
2023-10-28T03:38:40.409Z,5.40
2023-10-28T03:41:12.300Z,4.68
2023-10-28T03:43:40.337Z,5.18
2023-10-28T03:46:07.684Z,6.15
2023-10-28T03:48:35.543Z,11.38
2023-10-28T03:51:05.066Z,6.83
2023-10-28T03:53:32.344Z,7.57
2023-10-28T03:55:59.665Z,6.93
2023-10-28T03:58:26.902Z,9.10
2023-10-28T04:00:55.139Z,9.10
2023-10-28T04:03:23.485Z,6.63
2023-10-28T04:05:52.183Z,7.13
2023-10-28T04:08:19.230Z,8.32
2023-10-28T04:10:47.834Z,7.40
2023-10-28T04:13:14.981Z,6.68
2023-10-28T04:15:42.654Z,5.73
2023-10-28T04:18:09.802Z,8.35
2023-10-28T04:20:39.113Z,6.15
2023-10-28T04:23:07.694Z,6.93
2023-10-28T04:25:35.675Z,5.65
2023-10-28T04:28:02.983Z,4.47
2023-10-28T04:30:31.589Z,4.07
2023-10-28T04:32:58.610Z,3.65
2023-10-28T04:35:28.431Z,4.88
2023-10-28T04:37:57.529Z,4.78
2023-10-28T04:40:26.372Z,3.67
2023-10-28T04:42:54.592Z,3.17
2023-10-28T04:45:23.249Z,3.30
2023-10-28T04:47:51.782Z,3.20
2023-10-28T04:50:19.865Z,4.07
2023-10-28T04:52:47.189Z,3.17
2023-10-28T04:55:14.706Z,3.80
2023-10-28T04:57:42.901Z,3.72
2023-10-28T05:00:10.899Z,5.10
2023-10-28T05:02:38.104Z,4.93
2023-10-28T05:05:06.278Z,5.77
2023-10-28T05:07:35.333Z,6.10
2023-10-28T05:10:04.554Z,4.97
2023-10-28T05:12:33.833Z,5.90
2023-10-28T05:15:01.290Z,5.30
2023-10-28T05:17:28.343Z,6.13
2023-10-28T05:19:55.643Z,6.53
2023-10-28T05:22:22.580Z,6.18
2023-10-28T05:24:53.881Z,7.43
2023-10-28T05:27:20.928Z,6.55
2023-10-28T05:29:49.571Z,4.30
2023-10-28T05:32:16.611Z,5.05
2023-10-28T05:34:44.024Z,4.97
2023-10-28T05:37:10.969Z,6.80
2023-10-28T05:39:41.702Z,4.65
2023-10-28T05:42:09.124Z,6.57
2023-10-28T05:44:36.998Z,5.50
2023-10-28T05:47:05.957Z,4.55
2023-10-28T05:49:34.674Z,4.45
2023-10-28T05:52:02.373Z,4.90
2023-10-28T05:54:31.272Z,5.73
2023-10-28T05:56:59.295Z,7.07
2023-10-28T05:59:26.716Z,6.53
2023-10-28T06:01:53.960Z,9.55
2023-10-28T06:04:22.690Z,11.45
2023-10-28T06:06:49.803Z,9.83
2023-10-28T06:09:17.144Z,9.73
2023-10-28T06:11:44.120Z,9.60
2023-10-28T06:14:11.377Z,10.65
2023-10-28T06:16:38.447Z,12.55
2023-10-28T06:19:06.544Z,10.63
2023-10-28T06:21:34.625Z,9.60
2023-10-28T06:24:01.861Z,10.15
2023-10-28T06:26:28.800Z,9.95
2023-10-28T06:28:56.136Z,6.78
2023-10-28T06:31:23.062Z,9.77
2023-10-28T06:33:50.774Z,11.82
2023-10-28T06:36:20.239Z,8.43
2023-10-28T06:38:47.541Z,7.05
2023-10-28T06:41:14.569Z,5.32
2023-10-28T06:43:41.914Z,5.70
2023-10-28T06:46:09.377Z,8.48
2023-10-28T06:48:37.862Z,9.15
2023-10-28T06:51:06.250Z,11.80
2023-10-28T06:53:33.779Z,11.50
2023-10-28T06:56:05.165Z,10.80
2023-10-28T06:58:33.174Z,12.50
2023-10-28T07:01:00.216Z,10.25
2023-10-28T07:03:29.383Z,8.57
2023-10-28T07:05:57.494Z,10.55
2023-10-28T07:08:26.005Z,14.23
2023-10-28T07:10:53.018Z,11.77
2023-10-28T07:13:20.375Z,12.23
2023-10-28T07:15:47.331Z,10.20
2023-10-28T07:18:15.387Z,13.63
2023-10-28T07:20:42.375Z,18.77
2023-10-28T07:23:10.045Z,12.40
2023-10-28T07:25:37.005Z,12.82
2023-10-28T07:28:05.868Z,10.68
2023-10-28T07:30:34.343Z,15.23
2023-10-28T07:33:03.496Z,11.53
2023-10-28T07:35:30.470Z,12.13
2023-10-28T07:37:57.872Z,12.00
2023-10-28T07:40:24.850Z,9.63
2023-10-28T07:42:52.155Z,13.52
2023-10-28T07:45:19.075Z,12.70
2023-10-28T07:47:46.352Z,10.75
2023-10-28T07:50:13.390Z,12.43
2023-10-28T07:52:40.696Z,14.45
2023-10-28T07:55:09.357Z,17.80
2023-10-28T07:57:36.607Z,19.90
2023-10-28T08:00:06.859Z,17.85
2023-10-28T08:02:44.877Z,20.85
2023-10-28T08:05:13.275Z,14.50
2023-10-28T08:07:42.011Z,22.98
2023-10-28T08:10:09.869Z,14.10
2023-10-28T08:12:38.199Z,14.98
2023-10-28T08:15:05.737Z,15.48
2023-10-28T08:17:33.225Z,15.50
2023-10-28T08:20:00.584Z,13.90
2023-10-28T08:22:27.871Z,11.33
2023-10-28T08:24:55.264Z,12.80
2023-10-28T08:27:22.525Z,11.05
2023-10-28T08:29:50.183Z,10.65
2023-10-28T08:32:20.142Z,9.43
2023-10-28T08:34:47.091Z,8.93
2023-10-28T08:37:15.007Z,7.82
2023-10-28T08:39:42.417Z,5.45
2023-10-28T08:42:11.790Z,5.30
2023-10-28T08:44:39.417Z,4.47
2023-10-28T08:47:10.200Z,4.73
2023-10-28T08:49:40.158Z,5.35
2023-10-28T08:52:11.762Z,4.28
2023-10-28T08:54:40.445Z,3.53
2023-10-28T08:57:08.582Z,4.50
2023-10-28T08:59:36.210Z,5.83
2023-10-28T09:02:09.533Z,4.00
2023-10-28T09:04:36.774Z,4.20
2023-10-28T09:07:06.882Z,4.75
2023-10-28T09:09:34.109Z,3.60
2023-10-28T09:12:02.713Z,6.13
2023-10-28T09:14:29.652Z,6.30
2023-10-28T09:17:01.915Z,4.70
2023-10-28T09:19:28.872Z,3.40
2023-10-28T09:21:56.706Z,3.85
2023-10-28T09:24:24.393Z,5.63
2023-10-28T09:26:54.596Z,3.00
2023-10-28T09:29:32.105Z,3.40
2023-10-28T09:32:09.768Z,3.70
2023-10-28T09:34:41.236Z,4.70
2023-10-28T09:37:10.288Z,4.83
2023-10-28T09:39:38.051Z,4.03
2023-10-28T09:42:06.222Z,4.55
2023-10-28T09:44:35.728Z,4.70
2023-10-28T09:47:05.478Z,5.13
2023-10-28T09:49:33.189Z,4.23
2023-10-28T09:52:08.510Z,4.25
2023-10-28T09:54:38.872Z,4.22
2023-10-28T09:57:09.313Z,4.25
2023-10-28T09:59:39.727Z,3.70
2023-10-28T10:03:00.697Z,4.93
2023-10-28T10:05:37.686Z,4.05
2023-10-28T10:08:05.306Z,4.35
2023-10-28T10:10:44.211Z,3.75
2023-10-28T10:13:11.682Z,4.65
2023-10-28T10:15:43.623Z,3.63
2023-10-28T10:18:22.829Z,5.00
2023-10-28T10:20:50.395Z,3.65
2023-10-28T10:23:17.860Z,4.80
2023-10-28T10:25:47.051Z,3.83
2023-10-28T10:28:16.657Z,5.03
2023-10-28T10:30:45.370Z,4.45
2023-10-28T10:33:13.743Z,5.25
2023-10-28T10:35:49.367Z,5.35
2023-10-28T10:38:16.771Z,4.97
2023-10-28T10:40:54.858Z,4.63
2023-10-28T10:43:23.097Z,4.00
2023-10-28T10:45:50.660Z,4.03
2023-10-28T10:48:18.616Z,3.40
2023-10-28T10:50:47.238Z,4.15
2023-10-28T10:53:14.645Z,5.97
2023-10-28T10:55:42.014Z,4.28
2023-10-28T10:58:09.393Z,6.03
2023-10-28T11:00:37.632Z,9.27
2023-10-28T11:03:07.912Z,6.53
2023-10-28T11:05:37.779Z,6.73
2023-10-28T11:08:05.623Z,7.20
2023-10-28T11:10:32.981Z,6.35
2023-10-28T11:13:02.602Z,4.43
2023-10-28T11:15:33.042Z,6.72
2023-10-28T11:18:00.521Z,6.00
2023-10-28T11:20:29.113Z,5.15
2023-10-28T11:22:56.901Z,5.63
2023-10-28T11:25:32.371Z,6.85
2023-10-28T11:28:08.370Z,7.35
2023-10-28T11:30:35.554Z,4.33
2023-10-28T11:33:10.001Z,8.65
2023-10-28T11:35:37.295Z,7.20
2023-10-28T11:38:05.224Z,5.78
2023-10-28T11:40:32.288Z,6.25
2023-10-28T11:42:59.619Z,4.40
2023-10-28T11:45:26.637Z,6.20
2023-10-28T11:47:53.942Z,5.28
2023-10-28T11:50:22.186Z,4.10
2023-10-28T11:52:49.644Z,7.20
2023-10-28T11:55:16.665Z,7.87
2023-10-28T11:57:44.271Z,5.22
2023-10-28T12:00:12.597Z,5.75
2023-10-28T12:02:40.345Z,5.15
2023-10-28T12:05:07.664Z,7.32
2023-10-28T12:07:35.090Z,7.60
2023-10-28T12:10:07.790Z,6.43
2023-10-28T12:12:35.175Z,7.00
2023-10-28T12:15:02.169Z,6.03
2023-10-28T12:17:29.677Z,6.70
2023-10-28T12:19:56.792Z,6.57
2023-10-28T12:22:24.127Z,4.22
2023-10-28T12:24:52.853Z,7.93
2023-10-28T12:27:20.520Z,5.50
2023-10-28T12:29:48.274Z,4.97
2023-10-28T12:32:16.117Z,4.93
2023-10-28T12:34:43.157Z,5.07
2023-10-28T12:37:10.412Z,4.47
2023-10-28T12:39:37.680Z,5.65
2023-10-28T12:42:05.154Z,3.50
2023-10-28T12:44:32.312Z,6.30
2023-10-28T12:46:59.731Z,5.35
2023-10-28T12:49:26.797Z,3.90
2023-10-28T12:51:57.719Z,4.55
2023-10-28T12:54:25.281Z,5.20
2023-10-28T12:56:52.980Z,4.17
2023-10-28T12:59:20.106Z,5.22
2023-10-28T13:01:47.957Z,5.40
2023-10-28T13:04:14.999Z,7.00
2023-10-28T13:06:42.281Z,6.47
2023-10-28T13:09:12.888Z,6.13
2023-10-28T13:11:40.738Z,6.22
2023-10-28T13:14:08.145Z,7.07
2023-10-28T13:16:38.836Z,5.35
2023-10-28T13:19:06.072Z,4.57
2023-10-28T13:21:33.339Z,7.60
2023-10-28T13:24:00.919Z,4.53
2023-10-28T13:26:28.249Z,4.38
2023-10-28T13:28:55.975Z,5.38
2023-10-28T13:31:24.640Z,3.80
2023-10-28T13:33:51.584Z,5.00
2023-10-28T13:36:18.879Z,4.45
2023-10-28T13:38:45.840Z,8.93
2023-10-28T13:41:13.226Z,7.38
2023-10-28T13:43:41.319Z,6.43
2023-10-28T13:46:08.930Z,3.93
2023-10-28T13:48:36.226Z,6.72
2023-10-28T13:51:03.805Z,6.47
2023-10-28T13:53:30.898Z,9.02
2023-10-28T13:55:59.454Z,6.50
2023-10-28T13:58:26.621Z,7.23
2023-10-28T14:00:55.457Z,7.00
2023-10-28T14:03:24.335Z,4.72
2023-10-28T14:05:51.750Z,6.45
2023-10-28T14:08:18.792Z,7.18
2023-10-28T14:10:47.716Z,4.67
2023-10-28T14:13:15.122Z,5.47
2023-10-28T14:15:44.146Z,4.32
2023-10-28T14:18:13.033Z,7.45
2023-10-28T14:20:40.472Z,3.90
2023-10-28T14:23:10.408Z,5.60
2023-10-28T14:25:37.991Z,3.92
2023-10-28T14:28:05.242Z,5.35
2023-10-28T14:30:34.128Z,4.55
2023-10-28T14:33:01.269Z,7.40
2023-10-28T14:35:31.377Z,3.37
2023-10-28T14:37:59.190Z,3.75
2023-10-28T14:40:26.569Z,5.10
2023-10-28T14:42:53.954Z,4.35
2023-10-28T14:45:22.238Z,6.00
2023-10-28T14:47:50.208Z,4.10
2023-10-28T14:50:18.619Z,3.50
2023-10-28T14:52:45.625Z,3.70
2023-10-28T14:55:13.234Z,5.40
2023-10-28T14:57:49.711Z,6.68
2023-10-28T15:00:25.567Z,5.10
2023-10-28T15:02:52.820Z,4.45
2023-10-28T15:05:20.474Z,5.50
2023-10-28T15:07:47.464Z,5.35
2023-10-28T15:10:14.772Z,6.10
2023-10-28T15:12:41.762Z,4.57
2023-10-28T15:15:09.770Z,3.47
2023-10-28T15:17:36.856Z,9.73
2023-10-28T15:20:04.725Z,10.73
2023-10-28T15:22:32.156Z,8.23
2023-10-28T15:24:59.437Z,4.80
2023-10-28T15:27:26.355Z,6.28
2023-10-28T15:29:53.636Z,5.97
2023-10-28T15:32:24.290Z,19.10
2023-10-28T15:34:51.628Z,8.98
2023-10-28T15:37:18.590Z,7.93
2023-10-28T15:39:46.216Z,7.18
2023-10-28T15:42:13.279Z,6.15
2023-10-28T15:44:40.628Z,4.38
2023-10-28T15:47:07.625Z,8.38
2023-10-28T15:49:34.891Z,6.17
2023-10-28T15:52:01.871Z,5.35
2023-10-28T15:54:29.209Z,5.40
2023-10-28T15:56:56.216Z,5.80
2023-10-28T15:59:23.610Z,5.78
2023-10-28T16:01:50.698Z,8.73
2023-10-28T16:04:18.049Z,11.55
2023-10-28T16:06:45.090Z,11.35
2023-10-28T16:09:13.245Z,10.10
2023-10-28T16:11:40.442Z,8.85
2023-10-28T16:14:07.813Z,9.43
2023-10-28T16:16:34.744Z,6.57
2023-10-28T16:19:02.685Z,6.32
2023-10-28T16:21:29.803Z,6.45
2023-10-28T16:23:57.079Z,6.30
2023-10-28T16:26:24.221Z,6.20
2023-10-28T16:28:51.560Z,9.40
2023-10-28T16:31:18.542Z,8.32
2023-10-28T16:33:45.957Z,9.52
2023-10-28T16:36:13.103Z,11.45
2023-10-28T16:38:40.457Z,8.90
2023-10-28T16:41:08.318Z,10.77
2023-10-28T16:43:35.767Z,8.63
2023-10-28T16:46:07.311Z,5.32
2023-10-28T16:48:34.614Z,7.53
2023-10-28T16:51:01.978Z,6.20
2023-10-28T16:53:29.402Z,6.03
2023-10-28T16:56:08.015Z,6.30
2023-10-28T16:58:36.474Z,7.07
2023-10-28T17:01:05.285Z,5.13
2023-10-28T17:03:34.355Z,4.23
2023-10-28T17:06:06.777Z,5.07
2023-10-28T17:08:34.389Z,5.18
2023-10-28T17:11:03.823Z,7.85
2023-10-28T17:13:32.088Z,6.95
2023-10-28T17:15:59.234Z,6.03
2023-10-28T17:18:26.697Z,4.18
2023-10-28T17:20:53.876Z,3.75
2023-10-28T17:23:21.678Z,4.05
2023-10-28T17:25:48.919Z,4.80
2023-10-28T17:28:16.487Z,3.80
2023-10-28T17:30:43.736Z,8.73
2023-10-28T17:33:13.018Z,3.03
2023-10-28T17:35:43.977Z,4.75
2023-10-28T17:38:12.191Z,5.05
2023-10-28T17:40:39.883Z,3.53
2023-10-28T17:43:07.491Z,3.97
2023-10-28T17:45:34.612Z,4.60
2023-10-28T17:48:03.715Z,4.50
2023-10-28T17:50:31.800Z,4.45
2023-10-28T17:52:59.161Z,4.80
2023-10-28T17:55:26.184Z,4.40
2023-10-28T17:57:53.489Z,4.32
2023-10-28T18:00:22.798Z,6.75
2023-10-28T18:02:50.145Z,4.22
2023-10-28T18:05:17.343Z,4.50
2023-10-28T18:07:46.925Z,3.90
2023-10-28T18:10:14.000Z,4.45
2023-10-28T18:12:41.337Z,3.85
2023-10-28T18:15:08.648Z,4.68
2023-10-28T18:17:36.116Z,4.23
2023-10-28T18:20:03.197Z,4.55
2023-10-28T18:22:30.476Z,5.97
2023-10-28T18:24:57.409Z,4.57
2023-10-28T18:27:25.145Z,6.07
2023-10-28T18:29:52.194Z,4.87
2023-10-28T18:32:19.517Z,4.68
2023-10-28T18:34:47.463Z,3.75
2023-10-28T18:37:14.759Z,3.58
2023-10-28T18:39:41.714Z,4.30
2023-10-28T18:42:09.011Z,5.23
2023-10-28T18:44:36.081Z,5.15
2023-10-28T18:47:07.444Z,5.47
2023-10-28T18:49:34.487Z,5.00
2023-10-28T18:52:05.568Z,4.70
2023-10-28T18:54:32.754Z,4.37
2023-10-28T18:57:00.363Z,5.05
2023-10-28T18:59:28.000Z,4.40
2023-10-28T19:01:55.698Z,3.92
2023-10-28T19:04:22.786Z,6.82
2023-10-28T19:06:50.128Z,5.93
2023-10-28T19:09:17.068Z,4.25
2023-10-28T19:11:44.381Z,5.63
2023-10-28T19:14:11.385Z,5.30
2023-10-28T19:16:38.957Z,4.80
2023-10-28T19:19:06.548Z,4.80
2023-10-28T19:21:33.955Z,4.72
2023-10-28T19:24:00.963Z,3.67
2023-10-28T19:26:28.517Z,6.10
2023-10-28T19:28:56.282Z,4.95
2023-10-28T19:31:23.637Z,4.77
2023-10-28T19:33:52.587Z,5.53
2023-10-28T19:36:20.444Z,5.40
2023-10-28T19:38:47.463Z,6.70
2023-10-28T19:41:14.852Z,4.88
2023-10-28T19:43:41.863Z,5.77
2023-10-28T19:46:09.939Z,4.53
2023-10-28T19:48:37.603Z,6.65
2023-10-28T19:51:06.627Z,7.38
2023-10-28T19:53:34.314Z,11.25
2023-10-28T19:56:02.605Z,9.87
2023-10-28T19:58:30.798Z,10.48
2023-10-28T20:00:58.211Z,10.68
2023-10-28T20:03:25.524Z,13.18
2023-10-28T20:05:53.375Z,12.98
2023-10-28T20:08:20.498Z,12.80
2023-10-28T20:10:47.827Z,16.60
2023-10-28T20:13:15.218Z,15.80
2023-10-28T20:15:42.495Z,14.15
2023-10-28T20:18:12.572Z,17.25
2023-10-28T20:20:39.965Z,16.10
2023-10-28T20:23:06.953Z,9.38
2023-10-28T20:25:34.857Z,12.05
2023-10-28T20:28:02.005Z,7.97
2023-10-28T20:30:29.322Z,15.63
2023-10-28T20:32:56.928Z,9.23
2023-10-28T20:35:25.337Z,6.18
2023-10-28T20:37:53.281Z,7.28
2023-10-28T20:40:20.784Z,6.10
2023-10-28T20:42:47.692Z,4.93
2023-10-28T20:45:18.963Z,8.70
2023-10-28T20:47:46.064Z,7.80
2023-10-28T20:50:13.748Z,7.97
2023-10-28T20:52:40.884Z,11.45
2023-10-28T20:55:08.784Z,10.63
2023-10-28T20:57:35.944Z,7.00
2023-10-28T21:00:05.187Z,5.50
2023-10-28T21:02:32.404Z,5.00
2023-10-28T21:05:00.004Z,6.97
2023-10-28T21:07:27.108Z,4.85
2023-10-28T21:09:55.158Z,11.73
2023-10-28T21:12:22.197Z,9.27
2023-10-28T21:14:50.151Z,9.40
2023-10-28T21:17:17.360Z,10.57
2023-10-28T21:19:44.777Z,7.40
2023-10-28T21:22:11.874Z,6.60
2023-10-28T21:24:39.542Z,5.93
2023-10-28T21:27:07.045Z,11.20
2023-10-28T21:29:36.176Z,8.85
2023-10-28T21:32:04.042Z,9.70
2023-10-28T21:34:31.920Z,9.03
2023-10-28T21:36:58.968Z,7.95
2023-10-28T21:39:26.416Z,7.80
2023-10-28T21:41:53.502Z,7.15
2023-10-28T21:44:20.972Z,7.57
2023-10-28T21:46:48.919Z,6.43
2023-10-28T21:49:16.676Z,3.95
2023-10-28T21:51:43.793Z,4.20
2023-10-28T21:54:11.941Z,4.57
2023-10-28T21:56:39.040Z,6.65
2023-10-28T21:59:06.561Z,4.80
2023-10-28T22:01:33.967Z,4.45
2023-10-28T22:04:02.140Z,3.83
2023-10-28T22:06:29.309Z,6.18
2023-10-28T22:08:56.746Z,6.97
2023-10-28T22:11:23.796Z,8.17
2023-10-28T22:13:51.512Z,6.68
2023-10-28T22:16:18.610Z,6.90
2023-10-28T22:18:46.483Z,6.25
2023-10-28T22:21:13.662Z,6.22
2023-10-28T22:23:41.190Z,11.20
2023-10-28T22:26:08.769Z,8.18
2023-10-28T22:28:36.764Z,6.70
2023-10-28T22:31:04.292Z,5.47
2023-10-28T22:33:32.556Z,4.78
2023-10-28T22:35:59.702Z,5.27
2023-10-28T22:38:27.182Z,7.35
2023-10-28T22:40:54.367Z,5.82
2023-10-28T22:43:21.808Z,6.03
2023-10-28T22:45:49.002Z,5.30
2023-10-28T22:48:16.510Z,6.00
2023-10-28T22:50:43.849Z,7.50
2023-10-28T22:53:12.183Z,9.43
2023-10-28T22:55:39.512Z,6.80
2023-10-28T22:58:08.557Z,6.85
2023-10-28T23:00:36.336Z,6.70
2023-10-28T23:03:09.068Z,6.15
2023-10-28T23:05:37.535Z,7.03
2023-10-28T23:08:05.340Z,6.68
2023-10-28T23:10:32.713Z,10.13
2023-10-28T23:13:01.037Z,8.73
2023-10-28T23:15:28.211Z,8.43
2023-10-28T23:17:55.815Z,5.30
2023-10-28T23:20:25.841Z,5.63
2023-10-28T23:22:53.427Z,5.05
2023-10-28T23:25:20.645Z,7.10
2023-10-28T23:27:48.178Z,6.30
2023-10-28T23:30:15.416Z,8.27
2023-10-28T23:32:43.063Z,8.63
2023-10-28T23:35:10.483Z,6.57
2023-10-28T23:37:38.139Z,10.03
2023-10-28T23:40:07.317Z,5.85
2023-10-28T23:42:34.894Z,8.35
2023-10-28T23:45:02.641Z,8.27
2023-10-28T23:47:30.181Z,6.93
2023-10-28T23:49:57.510Z,7.07
2023-10-28T23:52:25.063Z,6.53
2023-10-28T23:54:52.380Z,7.72
2023-10-28T23:57:19.872Z,10.48
2023-10-28T23:59:47.212Z,10.32
